ADDS METAR Data INFO
IDs: Format: Raw Decoded Include TAF

Data at: 1242 UTC 19 Oct 2017

KCSV 191153Z AUTO 00000KT 10SM CLR 05/04 A3031 RMK AO2 SLP263 T00500039 10083 20050 51013
KCSV 191053Z AUTO 00000KT 10SM CLR 05/04 A3031 RMK AO2 SLP259 T00500044
KCSV 190953Z AUTO 00000KT 10SM CLR 06/04 A3029 RMK AO2 SLP250 T00610044
KCSV 190853Z AUTO 00000KT 10SM CLR 07/05 A3027 RMK AO2 SLP243 T00720050 58002
KCSV 190753Z AUTO 00000KT 10SM CLR 06/05 A3028 RMK AO2 SLP247 T00610050
KCSV 190653Z AUTO 00000KT 10SM CLR 07/06 A3027 RMK AO2 SLP245 T00720056
KCSV 190553Z AUTO 00000KT 10SM CLR 07/06 A3028 RMK AO2 SLP246 T00720061 10128 20072 402000033 55007
KCSV 190453Z AUTO 00000KT 10SM CLR 08/06 A3027 RMK AO2 SLP245 T00780061
KCSV 190353Z AUTO 00000KT 10SM CLR 07/06 A3029 RMK AO2 SLP252 T00720056
KCSV 190253Z AUTO 00000KT 10SM CLR 08/06 A3030 RMK AO2 SLP256 T00830056 51005
KCSV 190153Z AUTO 00000KT 10SM CLR 09/06 A3029 RMK AO2 SLP257 T00890061
KCSV 190053Z AUTO 00000KT 10SM CLR 11/06 A3029 RMK AO2 SLP260 T01060061
KCSV 182353Z AUTO 16003KT 10SM CLR 12/08 A3028 RMK AO2 SLP256 T01220078 10200 20122 53003
KCSV 182253Z AUTO 17003KT 10SM CLR 17/07 A3028 RMK AO2 SLP250 T01670067
KCSV 182153Z AUTO 17003KT 10SM CLR 19/05 A3027 RMK AO2 SLP247 T01890050
KCSV 182053Z AUTO VRB03KT 10SM CLR 20/05 A3027 RMK AO2 SLP245 T02000050 56016
KCSV 181953Z AUTO 16005KT 10SM CLR 19/05 A3028 RMK AO2 SLP249 T01940050
KCSV 181853Z AUTO 10SM CLR 19/06 A3030 RMK AO2 SLP254 T01890056
KCSV 181753Z AUTO 00000KT 10SM CLR 18/06 A3032 RMK AO2 SLP264 T01830056 10189 20033 58013
KCSV 181653Z AUTO VRB03KT 10SM CLR 17/06 A3035 RMK AO2 SLP273 T01720061
KCSV 181553Z AUTO 16005KT 10SM CLR 16/07 A3036 RMK AO2 SLP277 T01560067
KCSV 181453Z AUTO 11003KT 10SM CLR 13/08 A3036 RMK AO2 SLP279 T01330083 51012
KCSV 181353Z AUTO 00000KT 10SM CLR 09/08 A3035 RMK AO2 SLP278 T00940078
KCSV 181253Z AUTO 00000KT 10SM CLR 05/04 A3034 RMK AO2 SLP276 T00500044
KCSV 181153Z AUTO 00000KT 10SM CLR 03/03 A3032 RMK AO2 SLP270 T00330028 10050 20033 51011
KCSV 181142Z AUTO 00000KT 10SM SCT001 03/03 A3033 RMK AO2 T00330028
KCSV 181133Z AUTO 00000KT 9SM BKN001 03/03 A3033 RMK AO2 T00330028
KCSV 181123Z AUTO 00000KT 2SM BR OVC001 03/03 A3032 RMK AO2 VIS 1 1/4V5 T00330028
KCSV 181118Z AUTO 00000KT 3/4SM BR VV001 03/03 A3032 RMK AO2 T00330028
KCSV 181053Z AUTO 00000KT M1/4SM FG VV001 04/03 A3032 RMK AO2 SLP265 T00390033
KCSV 181043Z AUTO 00000KT 1/4SM FG VV001 04/03 A3031 RMK AO2 T00390033
KCSV 181035Z AUTO 00000KT 1/2SM FG VV001 04/03 A3031 RMK AO2 T00440033
KCSV 181033Z AUTO 00000KT 2 1/2SM BR FEW001 04/03 A3031 RMK AO2 T00440033
KCSV 180953Z AUTO 00000KT 10SM CLR 04/03 A3030 RMK AO2 SLP258 T00440028
KCSV 180853Z AUTO 00000KT 10SM CLR 05/03 A3029 RMK AO2 SLP254 T00500033 55002
KCSV 180753Z AUTO 00000KT 10SM CLR 04/04 A3029 RMK AO2 SLP253 T00440039
KCSV 180653Z AUTO 00000KT 10SM CLR 05/04 A3030 RMK AO2 SLP256 T00500039
KCSV 180553Z AUTO 00000KT 10SM CLR 05/04 A3030 RMK AO2 SLP257 T00500039 10122 20050 401830028 58003
KCSV 180453Z AUTO 00000KT 10SM CLR 06/04 A3030 RMK AO2 SLP259 T00560044
KCSV 180353Z AUTO 00000KT 10SM CLR 06/04 A3031 RMK AO2 SLP260 T00610044
KCSV 180253Z AUTO 00000KT 10SM CLR 07/05 A3031 RMK AO2 SLP262 T00670050 53007
KCSV 180153Z AUTO 00000KT 10SM CLR 08/06 A3030 RMK AO2 SLP259 T00830056
KCSV 180053Z AUTO 00000KT 10SM CLR 09/06 A3030 RMK AO2 SLP260 T00940056